sensor_id;sensor_type;location;lat;lon;timestamp;P1;durP1;ratioP1;P2;durP2;ratioP2
17494;SDS011;8864;51.970;4.614;2023-07-31T00:01:24;4.40;;;1.60;;
17494;SDS011;8864;51.970;4.614;2023-07-31T00:03:53;5.80;;;1.80;;
17494;SDS011;8864;51.970;4.614;2023-07-31T00:06:20;4.40;;;2.08;;
17494;SDS011;8864;51.970;4.614;2023-07-31T00:08:46;3.38;;;1.73;;
17494;SDS011;8864;51.970;4.614;2023-07-31T00:11:13;3.08;;;1.33;;
17494;SDS011;8864;51.970;4.614;2023-07-31T00:13:40;3.72;;;1.70;;
17494;SDS011;8864;51.970;4.614;2023-07-31T00:16:07;3.67;;;1.50;;
17494;SDS011;8864;51.970;4.614;2023-07-31T00:18:34;4.50;;;1.80;;
17494;SDS011;8864;51.970;4.614;2023-07-31T00:21:02;6.60;;;2.20;;
17494;SDS011;8864;51.970;4.614;2023-07-31T00:23:29;6.75;;;1.95;;
17494;SDS011;8864;51.970;4.614;2023-07-31T00:25:56;5.20;;;1.65;;
17494;SDS011;8864;51.970;4.614;2023-07-31T00:28:23;4.50;;;1.77;;
17494;SDS011;8864;51.970;4.614;2023-07-31T00:30:50;3.15;;;1.42;;
17494;SDS011;8864;51.970;4.614;2023-07-31T00:33:17;4.28;;;1.67;;
17494;SDS011;8864;51.970;4.614;2023-07-31T00:35:44;5.03;;;2.13;;
17494;SDS011;8864;51.970;4.614;2023-07-31T00:38:12;5.40;;;1.88;;
17494;SDS011;8864;51.970;4.614;2023-07-31T00:40:39;4.35;;;1.85;;
17494;SDS011;8864;51.970;4.614;2023-07-31T00:43:06;4.70;;;1.95;;
17494;SDS011;8864;51.970;4.614;2023-07-31T00:45:33;5.80;;;2.33;;
17494;SDS011;8864;51.970;4.614;2023-07-31T00:48:00;5.00;;;1.88;;
17494;SDS011;8864;51.970;4.614;2023-07-31T00:50:28;4.72;;;1.90;;
17494;SDS011;8864;51.970;4.614;2023-07-31T00:52:55;4.05;;;1.70;;
17494;SDS011;8864;51.970;4.614;2023-07-31T00:55:24;5.75;;;2.10;;
17494;SDS011;8864;51.970;4.614;2023-07-31T00:57:51;6.13;;;2.10;;
17494;SDS011;8864;51.970;4.614;2023-07-31T01:00:20;6.38;;;2.38;;
17494;SDS011;8864;51.970;4.614;2023-07-31T01:02:47;4.45;;;2.13;;
17494;SDS011;8864;51.970;4.614;2023-07-31T01:05:15;6.68;;;1.95;;
17494;SDS011;8864;51.970;4.614;2023-07-31T01:07:45;5.30;;;2.28;;
17494;SDS011;8864;51.970;4.614;2023-07-31T01:10:20;4.15;;;1.90;;
17494;SDS011;8864;51.970;4.614;2023-07-31T01:12:52;6.18;;;2.22;;
17494;SDS011;8864;51.970;4.614;2023-07-31T01:15:22;4.43;;;1.80;;
17494;SDS011;8864;51.970;4.614;2023-07-31T01:17:49;5.13;;;2.00;;
17494;SDS011;8864;51.970;4.614;2023-07-31T01:20:17;5.03;;;2.20;;
17494;SDS011;8864;51.970;4.614;2023-07-31T01:22:50;5.68;;;2.28;;
17494;SDS011;8864;51.970;4.614;2023-07-31T01:25:50;5.18;;;2.10;;
17494;SDS011;8864;51.970;4.614;2023-07-31T01:28:27;5.53;;;1.98;;
17494;SDS011;8864;51.970;4.614;2023-07-31T01:31:03;4.82;;;1.73;;
17494;SDS011;8864;51.970;4.614;2023-07-31T01:33:37;3.35;;;1.60;;
17494;SDS011;8864;51.970;4.614;2023-07-31T01:36:05;5.20;;;1.77;;
17494;SDS011;8864;51.970;4.614;2023-07-31T01:38:32;4.60;;;2.00;;
17494;SDS011;8864;51.970;4.614;2023-07-31T01:41:01;4.45;;;1.90;;
17494;SDS011;8864;51.970;4.614;2023-07-31T01:43:28;5.47;;;1.92;;
17494;SDS011;8864;51.970;4.614;2023-07-31T01:45:55;3.90;;;1.90;;
17494;SDS011;8864;51.970;4.614;2023-07-31T01:48:22;4.18;;;1.77;;
17494;SDS011;8864;51.970;4.614;2023-07-31T01:50:49;4.38;;;1.67;;
17494;SDS011;8864;51.970;4.614;2023-07-31T01:53:15;8.70;;;2.10;;
17494;SDS011;8864;51.970;4.614;2023-07-31T01:55:42;6.38;;;2.20;;
17494;SDS011;8864;51.970;4.614;2023-07-31T01:58:11;5.10;;;1.85;;
17494;SDS011;8864;51.970;4.614;2023-07-31T02:00:38;4.63;;;1.77;;
17494;SDS011;8864;51.970;4.614;2023-07-31T02:03:05;4.10;;;2.08;;
17494;SDS011;8864;51.970;4.614;2023-07-31T02:05:31;5.18;;;2.10;;
17494;SDS011;8864;51.970;4.614;2023-07-31T02:07:58;7.15;;;1.95;;
17494;SDS011;8864;51.970;4.614;2023-07-31T02:10:25;4.07;;;2.00;;
17494;SDS011;8864;51.970;4.614;2023-07-31T02:12:52;4.10;;;1.88;;
17494;SDS011;8864;51.970;4.614;2023-07-31T02:15:21;5.47;;;1.85;;
17494;SDS011;8864;51.970;4.614;2023-07-31T02:17:48;7.72;;;2.22;;
17494;SDS011;8864;51.970;4.614;2023-07-31T02:20:15;4.07;;;1.80;;
17494;SDS011;8864;51.970;4.614;2023-07-31T02:22:42;4.38;;;2.10;;
17494;SDS011;8864;51.970;4.614;2023-07-31T02:25:08;4.03;;;1.90;;
17494;SDS011;8864;51.970;4.614;2023-07-31T02:27:35;3.88;;;2.00;;
17494;SDS011;8864;51.970;4.614;2023-07-31T02:30:02;4.50;;;2.17;;
17494;SDS011;8864;51.970;4.614;2023-07-31T02:32:31;5.57;;;2.08;;
17494;SDS011;8864;51.970;4.614;2023-07-31T02:34:58;5.80;;;2.13;;
17494;SDS011;8864;51.970;4.614;2023-07-31T02:37:25;6.10;;;2.40;;
17494;SDS011;8864;51.970;4.614;2023-07-31T02:39:54;6.70;;;2.17;;
17494;SDS011;8864;51.970;4.614;2023-07-31T02:42:20;6.43;;;2.20;;
17494;SDS011;8864;51.970;4.614;2023-07-31T02:44:47;6.13;;;2.40;;
17494;SDS011;8864;51.970;4.614;2023-07-31T02:47:17;4.00;;;1.90;;
17494;SDS011;8864;51.970;4.614;2023-07-31T02:49:45;5.32;;;2.20;;
17494;SDS011;8864;51.970;4.614;2023-07-31T02:52:12;6.10;;;2.22;;
17494;SDS011;8864;51.970;4.614;2023-07-31T02:54:39;4.90;;;2.35;;
17494;SDS011;8864;51.970;4.614;2023-07-31T02:57:06;5.20;;;2.40;;
17494;SDS011;8864;51.970;4.614;2023-07-31T02:59:32;5.28;;;2.10;;
17494;SDS011;8864;51.970;4.614;2023-07-31T03:01:59;6.78;;;2.42;;
17494;SDS011;8864;51.970;4.614;2023-07-31T03:04:26;5.28;;;2.30;;
17494;SDS011;8864;51.970;4.614;2023-07-31T03:06:54;5.88;;;2.00;;
17494;SDS011;8864;51.970;4.614;2023-07-31T03:09:21;4.18;;;1.90;;
17494;SDS011;8864;51.970;4.614;2023-07-31T03:11:48;6.00;;;1.92;;
17494;SDS011;8864;51.970;4.614;2023-07-31T03:14:15;4.47;;;2.00;;
17494;SDS011;8864;51.970;4.614;2023-07-31T03:16:42;5.43;;;1.98;;
17494;SDS011;8864;51.970;4.614;2023-07-31T03:19:10;4.28;;;2.00;;
17494;SDS011;8864;51.970;4.614;2023-07-31T03:21:37;5.20;;;2.17;;
17494;SDS011;8864;51.970;4.614;2023-07-31T03:24:06;5.22;;;2.08;;
17494;SDS011;8864;51.970;4.614;2023-07-31T03:26:33;6.50;;;2.45;;
17494;SDS011;8864;51.970;4.614;2023-07-31T03:29:01;4.70;;;2.22;;
17494;SDS011;8864;51.970;4.614;2023-07-31T03:31:28;6.80;;;2.30;;
17494;SDS011;8864;51.970;4.614;2023-07-31T03:33:55;4.25;;;1.95;;
17494;SDS011;8864;51.970;4.614;2023-07-31T03:36:22;5.05;;;2.03;;
17494;SDS011;8864;51.970;4.614;2023-07-31T03:38:49;6.97;;;2.13;;
17494;SDS011;8864;51.970;4.614;2023-07-31T03:41:18;5.18;;;1.88;;
17494;SDS011;8864;51.970;4.614;2023-07-31T03:43:46;7.32;;;2.25;;
17494;SDS011;8864;51.970;4.614;2023-07-31T03:46:17;4.03;;;1.92;;
17494;SDS011;8864;51.970;4.614;2023-07-31T03:48:43;4.07;;;2.10;;
17494;SDS011;8864;51.970;4.614;2023-07-31T03:51:10;6.82;;;2.50;;
17494;SDS011;8864;51.970;4.614;2023-07-31T03:53:37;5.25;;;2.15;;
17494;SDS011;8864;51.970;4.614;2023-07-31T03:56:04;6.40;;;2.47;;
17494;SDS011;8864;51.970;4.614;2023-07-31T03:58:33;4.18;;;2.20;;
17494;SDS011;8864;51.970;4.614;2023-07-31T04:01:00;5.18;;;2.10;;
17494;SDS011;8864;51.970;4.614;2023-07-31T04:03:27;5.60;;;2.13;;
17494;SDS011;8864;51.970;4.614;2023-07-31T04:05:54;6.57;;;2.40;;
17494;SDS011;8864;51.970;4.614;2023-07-31T04:08:21;6.10;;;2.00;;
17494;SDS011;8864;51.970;4.614;2023-07-31T04:10:49;5.13;;;2.20;;
17494;SDS011;8864;51.970;4.614;2023-07-31T04:13:16;5.03;;;2.40;;
17494;SDS011;8864;51.970;4.614;2023-07-31T04:15:44;4.65;;;2.28;;
17494;SDS011;8864;51.970;4.614;2023-07-31T04:18:15;5.07;;;2.10;;
17494;SDS011;8864;51.970;4.614;2023-07-31T04:20:42;4.50;;;1.77;;
17494;SDS011;8864;51.970;4.614;2023-07-31T04:23:08;4.95;;;2.03;;
17494;SDS011;8864;51.970;4.614;2023-07-31T04:25:35;3.35;;;1.90;;
17494;SDS011;8864;51.970;4.614;2023-07-31T04:28:02;4.53;;;2.10;;
17494;SDS011;8864;51.970;4.614;2023-07-31T04:30:29;4.72;;;2.03;;
17494;SDS011;8864;51.970;4.614;2023-07-31T04:32:58;3.80;;;2.00;;
17494;SDS011;8864;51.970;4.614;2023-07-31T04:35:25;3.92;;;1.83;;
17494;SDS011;8864;51.970;4.614;2023-07-31T04:37:52;3.45;;;1.92;;
17494;SDS011;8864;51.970;4.614;2023-07-31T04:40:19;3.92;;;1.60;;
17494;SDS011;8864;51.970;4.614;2023-07-31T04:42:47;3.75;;;1.98;;
17494;SDS011;8864;51.970;4.614;2023-07-31T04:45:14;3.63;;;1.88;;
17494;SDS011;8864;51.970;4.614;2023-07-31T04:47:41;3.47;;;1.85;;
17494;SDS011;8864;51.970;4.614;2023-07-31T04:50:09;5.18;;;2.00;;
17494;SDS011;8864;51.970;4.614;2023-07-31T04:52:36;2.97;;;1.60;;
17494;SDS011;8864;51.970;4.614;2023-07-31T04:55:03;3.03;;;1.80;;
17494;SDS011;8864;51.970;4.614;2023-07-31T04:57:30;3.45;;;1.92;;
17494;SDS011;8864;51.970;4.614;2023-07-31T04:59:57;3.15;;;1.63;;
17494;SDS011;8864;51.970;4.614;2023-07-31T05:02:24;2.63;;;1.48;;
17494;SDS011;8864;51.970;4.614;2023-07-31T05:04:51;4.32;;;1.80;;
17494;SDS011;8864;51.970;4.614;2023-07-31T05:07:19;4.15;;;1.85;;
17494;SDS011;8864;51.970;4.614;2023-07-31T05:09:46;4.18;;;1.63;;
17494;SDS011;8864;51.970;4.614;2023-07-31T05:12:13;3.47;;;1.70;;
17494;SDS011;8864;51.970;4.614;2023-07-31T05:14:40;3.45;;;1.45;;
17494;SDS011;8864;51.970;4.614;2023-07-31T05:17:07;3.97;;;1.90;;
17494;SDS011;8864;51.970;4.614;2023-07-31T05:19:34;3.85;;;1.75;;
17494;SDS011;8864;51.970;4.614;2023-07-31T05:22:01;3.70;;;1.85;;
17494;SDS011;8864;51.970;4.614;2023-07-31T05:24:29;3.08;;;1.70;;
17494;SDS011;8864;51.970;4.614;2023-07-31T05:26:56;4.30;;;1.73;;
17494;SDS011;8864;51.970;4.614;2023-07-31T05:29:23;3.35;;;1.88;;
17494;SDS011;8864;51.970;4.614;2023-07-31T05:31:50;3.40;;;1.70;;
17494;SDS011;8864;51.970;4.614;2023-07-31T05:34:17;2.90;;;1.48;;
17494;SDS011;8864;51.970;4.614;2023-07-31T05:36:44;2.60;;;1.60;;
17494;SDS011;8864;51.970;4.614;2023-07-31T05:39:10;3.15;;;1.63;;
17494;SDS011;8864;51.970;4.614;2023-07-31T05:41:39;2.80;;;1.70;;
17494;SDS011;8864;51.970;4.614;2023-07-31T05:44:06;3.70;;;1.70;;
17494;SDS011;8864;51.970;4.614;2023-07-31T05:46:33;2.88;;;1.63;;
17494;SDS011;8864;51.970;4.614;2023-07-31T05:49:00;3.67;;;1.75;;
17494;SDS011;8864;51.970;4.614;2023-07-31T05:51:27;2.78;;;1.70;;
17494;SDS011;8864;51.970;4.614;2023-07-31T05:53:54;3.83;;;1.88;;
17494;SDS011;8864;51.970;4.614;2023-07-31T05:56:21;4.32;;;1.40;;
17494;SDS011;8864;51.970;4.614;2023-07-31T05:58:49;3.33;;;1.67;;
17494;SDS011;8864;51.970;4.614;2023-07-31T06:01:16;4.00;;;1.58;;
17494;SDS011;8864;51.970;4.614;2023-07-31T06:03:43;3.08;;;1.48;;
17494;SDS011;8864;51.970;4.614;2023-07-31T06:06:11;2.80;;;1.60;;
17494;SDS011;8864;51.970;4.614;2023-07-31T06:08:38;2.55;;;1.67;;
17494;SDS011;8864;51.970;4.614;2023-07-31T06:11:06;2.42;;;1.50;;
17494;SDS011;8864;51.970;4.614;2023-07-31T06:13:34;2.88;;;1.42;;
17494;SDS011;8864;51.970;4.614;2023-07-31T06:16:02;3.63;;;1.65;;
17494;SDS011;8864;51.970;4.614;2023-07-31T06:18:31;2.50;;;1.50;;
17494;SDS011;8864;51.970;4.614;2023-07-31T06:20:58;3.40;;;1.70;;
17494;SDS011;8864;51.970;4.614;2023-07-31T06:23:25;2.88;;;1.70;;
17494;SDS011;8864;51.970;4.614;2023-07-31T06:25:52;3.00;;;1.70;;
17494;SDS011;8864;51.970;4.614;2023-07-31T06:28:19;2.33;;;1.52;;
17494;SDS011;8864;51.970;4.614;2023-07-31T06:30:46;2.80;;;1.45;;
17494;SDS011;8864;51.970;4.614;2023-07-31T06:33:16;2.88;;;1.67;;
17494;SDS011;8864;51.970;4.614;2023-07-31T06:35:43;1.73;;;1.30;;
17494;SDS011;8864;51.970;4.614;2023-07-31T06:38:10;2.15;;;1.52;;
17494;SDS011;8864;51.970;4.614;2023-07-31T06:40:37;2.30;;;1.35;;
17494;SDS011;8864;51.970;4.614;2023-07-31T06:43:04;2.25;;;1.40;;
17494;SDS011;8864;51.970;4.614;2023-07-31T06:45:33;2.45;;;1.60;;
17494;SDS011;8864;51.970;4.614;2023-07-31T06:48:00;3.97;;;1.40;;
17494;SDS011;8864;51.970;4.614;2023-07-31T06:50:29;3.30;;;1.50;;
17494;SDS011;8864;51.970;4.614;2023-07-31T06:52:56;3.00;;;1.60;;
17494;SDS011;8864;51.970;4.614;2023-07-31T06:55:23;2.00;;;1.15;;
17494;SDS011;8864;51.970;4.614;2023-07-31T06:57:51;2.45;;;1.30;;
17494;SDS011;8864;51.970;4.614;2023-07-31T07:00:19;1.98;;;1.20;;
17494;SDS011;8864;51.970;4.614;2023-07-31T07:02:47;2.15;;;1.25;;
17494;SDS011;8864;51.970;4.614;2023-07-31T07:05:15;3.20;;;1.45;;
17494;SDS011;8864;51.970;4.614;2023-07-31T07:07:44;3.00;;;1.40;;
17494;SDS011;8864;51.970;4.614;2023-07-31T07:10:11;1.75;;;1.20;;
17494;SDS011;8864;51.970;4.614;2023-07-31T07:12:38;2.75;;;1.17;;
17494;SDS011;8864;51.970;4.614;2023-07-31T07:15:06;2.08;;;1.33;;
17494;SDS011;8864;51.970;4.614;2023-07-31T07:17:34;1.67;;;1.30;;
17494;SDS011;8864;51.970;4.614;2023-07-31T07:20:02;1.80;;;1.20;;
17494;SDS011;8864;51.970;4.614;2023-07-31T07:22:29;2.20;;;1.30;;
17494;SDS011;8864;51.970;4.614;2023-07-31T07:24:58;3.28;;;1.20;;
17494;SDS011;8864;51.970;4.614;2023-07-31T07:27:25;3.10;;;1.60;;
17494;SDS011;8864;51.970;4.614;2023-07-31T07:29:52;2.42;;;1.30;;
17494;SDS011;8864;51.970;4.614;2023-07-31T07:32:19;2.65;;;1.42;;
17494;SDS011;8864;51.970;4.614;2023-07-31T07:34:46;2.65;;;1.40;;
17494;SDS011;8864;51.970;4.614;2023-07-31T07:37:14;2.20;;;1.30;;
17494;SDS011;8864;51.970;4.614;2023-07-31T07:39:42;2.45;;;1.17;;
17494;SDS011;8864;51.970;4.614;2023-07-31T07:42:10;1.90;;;1.17;;
17494;SDS011;8864;51.970;4.614;2023-07-31T07:44:37;2.42;;;1.10;;
17494;SDS011;8864;51.970;4.614;2023-07-31T07:47:04;1.25;;;0.90;;
17494;SDS011;8864;51.970;4.614;2023-07-31T07:49:32;1.35;;;1.00;;
17494;SDS011;8864;51.970;4.614;2023-07-31T07:51:59;1.58;;;1.00;;
17494;SDS011;8864;51.970;4.614;2023-07-31T07:54:26;1.77;;;1.30;;
17494;SDS011;8864;51.970;4.614;2023-07-31T07:56:53;1.90;;;1.08;;
17494;SDS011;8864;51.970;4.614;2023-07-31T07:59:22;2.10;;;1.25;;
17494;SDS011;8864;51.970;4.614;2023-07-31T08:01:48;2.20;;;1.10;;
17494;SDS011;8864;51.970;4.614;2023-07-31T08:04:15;1.50;;;1.00;;
17494;SDS011;8864;51.970;4.614;2023-07-31T08:06:42;1.10;;;0.77;;
17494;SDS011;8864;51.970;4.614;2023-07-31T08:09:09;1.25;;;1.02;;
17494;SDS011;8864;51.970;4.614;2023-07-31T08:11:36;1.55;;;1.00;;
17494;SDS011;8864;51.970;4.614;2023-07-31T08:14:03;2.78;;;1.10;;
17494;SDS011;8864;51.970;4.614;2023-07-31T08:16:31;1.35;;;0.95;;
17494;SDS011;8864;51.970;4.614;2023-07-31T08:18:58;1.63;;;0.98;;
17494;SDS011;8864;51.970;4.614;2023-07-31T08:21:25;1.45;;;1.10;;
17494;SDS011;8864;51.970;4.614;2023-07-31T08:23:52;1.77;;;1.10;;
17494;SDS011;8864;51.970;4.614;2023-07-31T08:26:19;1.23;;;0.90;;
17494;SDS011;8864;51.970;4.614;2023-07-31T08:28:47;1.58;;;1.17;;
17494;SDS011;8864;51.970;4.614;2023-07-31T08:31:13;2.83;;;1.20;;
17494;SDS011;8864;51.970;4.614;2023-07-31T08:33:42;1.40;;;1.02;;
17494;SDS011;8864;51.970;4.614;2023-07-31T08:36:10;1.77;;;0.98;;
17494;SDS011;8864;51.970;4.614;2023-07-31T08:38:37;1.40;;;1.10;;
17494;SDS011;8864;51.970;4.614;2023-07-31T08:41:04;1.05;;;0.82;;
17494;SDS011;8864;51.970;4.614;2023-07-31T08:43:31;1.15;;;0.90;;
17494;SDS011;8864;51.970;4.614;2023-07-31T08:45:59;1.40;;;1.00;;
17494;SDS011;8864;51.970;4.614;2023-07-31T08:48:27;1.02;;;0.90;;
17494;SDS011;8864;51.970;4.614;2023-07-31T08:50:57;1.95;;;0.93;;
17494;SDS011;8864;51.970;4.614;2023-07-31T08:53:24;1.80;;;0.90;;
17494;SDS011;8864;51.970;4.614;2023-07-31T08:55:52;1.20;;;0.90;;
17494;SDS011;8864;51.970;4.614;2023-07-31T08:58:19;1.50;;;0.90;;
17494;SDS011;8864;51.970;4.614;2023-07-31T09:00:50;1.05;;;0.75;;
17494;SDS011;8864;51.970;4.614;2023-07-31T09:03:18;1.40;;;0.80;;
17494;SDS011;8864;51.970;4.614;2023-07-31T09:05:48;1.00;;;0.90;;
17494;SDS011;8864;51.970;4.614;2023-07-31T09:08:18;1.65;;;0.80;;
17494;SDS011;8864;51.970;4.614;2023-07-31T09:10:47;1.50;;;1.00;;
17494;SDS011;8864;51.970;4.614;2023-07-31T09:13:15;1.10;;;0.80;;
17494;SDS011;8864;51.970;4.614;2023-07-31T09:15:44;1.50;;;1.00;;
17494;SDS011;8864;51.970;4.614;2023-07-31T09:18:12;0.82;;;0.70;;
17494;SDS011;8864;51.970;4.614;2023-07-31T09:20:39;1.00;;;0.80;;
17494;SDS011;8864;51.970;4.614;2023-07-31T09:23:06;1.80;;;0.98;;
17494;SDS011;8864;51.970;4.614;2023-07-31T09:25:36;2.05;;;0.95;;
17494;SDS011;8864;51.970;4.614;2023-07-31T09:28:04;1.10;;;0.68;;
17494;SDS011;8864;51.970;4.614;2023-07-31T09:30:43;1.40;;;0.70;;
17494;SDS011;8864;51.970;4.614;2023-07-31T09:33:12;0.98;;;0.70;;
17494;SDS011;8864;51.970;4.614;2023-07-31T09:35:39;1.33;;;0.80;;
17494;SDS011;8864;51.970;4.614;2023-07-31T09:38:07;1.40;;;0.90;;
17494;SDS011;8864;51.970;4.614;2023-07-31T09:40:37;1.00;;;0.80;;
17494;SDS011;8864;51.970;4.614;2023-07-31T09:43:05;1.58;;;0.80;;
17494;SDS011;8864;51.970;4.614;2023-07-31T09:45:34;1.25;;;0.80;;
17494;SDS011;8864;51.970;4.614;2023-07-31T09:48:02;3.50;;;1.05;;
17494;SDS011;8864;51.970;4.614;2023-07-31T09:50:34;0.95;;;0.77;;
17494;SDS011;8864;51.970;4.614;2023-07-31T09:53:03;1.35;;;0.90;;
17494;SDS011;8864;51.970;4.614;2023-07-31T09:55:30;1.27;;;0.80;;
17494;SDS011;8864;51.970;4.614;2023-07-31T09:57:59;1.35;;;0.85;;
17494;SDS011;8864;51.970;4.614;2023-07-31T10:00:28;1.90;;;1.08;;
17494;SDS011;8864;51.970;4.614;2023-07-31T10:02:58;0.90;;;0.80;;
17494;SDS011;8864;51.970;4.614;2023-07-31T10:05:28;0.98;;;0.68;;
17494;SDS011;8864;51.970;4.614;2023-07-31T10:08:00;1.40;;;0.80;;
17494;SDS011;8864;51.970;4.614;2023-07-31T10:10:28;1.08;;;0.77;;
17494;SDS011;8864;51.970;4.614;2023-07-31T10:12:55;1.20;;;0.95;;
17494;SDS011;8864;51.970;4.614;2023-07-31T10:15:24;1.20;;;0.80;;
17494;SDS011;8864;51.970;4.614;2023-07-31T10:17:53;0.90;;;0.77;;
17494;SDS011;8864;51.970;4.614;2023-07-31T10:20:21;0.98;;;0.80;;
17494;SDS011;8864;51.970;4.614;2023-07-31T10:22:50;1.83;;;0.85;;
17494;SDS011;8864;51.970;4.614;2023-07-31T10:25:18;1.63;;;0.90;;
17494;SDS011;8864;51.970;4.614;2023-07-31T10:27:47;1.55;;;0.80;;
17494;SDS011;8864;51.970;4.614;2023-07-31T10:30:17;0.80;;;0.70;;
17494;SDS011;8864;51.970;4.614;2023-07-31T10:32:48;0.88;;;0.70;;
17494;SDS011;8864;51.970;4.614;2023-07-31T10:35:16;1.30;;;0.90;;
17494;SDS011;8864;51.970;4.614;2023-07-31T10:37:44;1.20;;;0.80;;
17494;SDS011;8864;51.970;4.614;2023-07-31T10:40:11;1.20;;;0.85;;
17494;SDS011;8864;51.970;4.614;2023-07-31T10:42:45;1.25;;;0.65;;
17494;SDS011;8864;51.970;4.614;2023-07-31T10:45:14;1.00;;;0.60;;
17494;SDS011;8864;51.970;4.614;2023-07-31T10:47:58;1.15;;;0.70;;
17494;SDS011;8864;51.970;4.614;2023-07-31T10:50:28;1.27;;;0.57;;
17494;SDS011;8864;51.970;4.614;2023-07-31T10:52:58;1.20;;;0.70;;
17494;SDS011;8864;51.970;4.614;2023-07-31T10:55:27;2.33;;;0.80;;
17494;SDS011;8864;51.970;4.614;2023-07-31T10:57:56;1.00;;;0.90;;
17494;SDS011;8864;51.970;4.614;2023-07-31T11:00:25;1.08;;;0.70;;
17494;SDS011;8864;51.970;4.614;2023-07-31T11:03:04;1.17;;;0.75;;
17494;SDS011;8864;51.970;4.614;2023-07-31T11:05:49;0.98;;;0.77;;
17494;SDS011;8864;51.970;4.614;2023-07-31T11:08:19;0.73;;;0.60;;
17494;SDS011;8864;51.970;4.614;2023-07-31T11:10:48;1.08;;;0.55;;
17494;SDS011;8864;51.970;4.614;2023-07-31T11:13:16;0.75;;;0.65;;
17494;SDS011;8864;51.970;4.614;2023-07-31T11:15:46;0.68;;;0.60;;
17494;SDS011;8864;51.970;4.614;2023-07-31T11:18:14;1.17;;;0.75;;
17494;SDS011;8864;51.970;4.614;2023-07-31T11:20:42;0.80;;;0.80;;
17494;SDS011;8864;51.970;4.614;2023-07-31T11:23:09;1.10;;;0.73;;
17494;SDS011;8864;51.970;4.614;2023-07-31T11:25:37;1.73;;;0.88;;
17494;SDS011;8864;51.970;4.614;2023-07-31T11:28:07;1.55;;;0.98;;
17494;SDS011;8864;51.970;4.614;2023-07-31T11:30:35;1.05;;;0.80;;
17494;SDS011;8864;51.970;4.614;2023-07-31T11:33:03;1.42;;;0.70;;
17494;SDS011;8864;51.970;4.614;2023-07-31T11:35:36;1.20;;;0.73;;
17494;SDS011;8864;51.970;4.614;2023-07-31T11:38:07;1.20;;;0.70;;
17494;SDS011;8864;51.970;4.614;2023-07-31T11:40:40;1.75;;;0.90;;
17494;SDS011;8864;51.970;4.614;2023-07-31T11:43:08;1.60;;;0.88;;
17494;SDS011;8864;51.970;4.614;2023-07-31T11:45:36;1.00;;;0.88;;
17494;SDS011;8864;51.970;4.614;2023-07-31T11:48:04;2.00;;;0.85;;
17494;SDS011;8864;51.970;4.614;2023-07-31T11:50:34;0.77;;;0.63;;
17494;SDS011;8864;51.970;4.614;2023-07-31T11:53:03;0.95;;;0.70;;
17494;SDS011;8864;51.970;4.614;2023-07-31T11:55:33;1.17;;;0.73;;
17494;SDS011;8864;51.970;4.614;2023-07-31T11:58:00;1.88;;;1.00;;
17494;SDS011;8864;51.970;4.614;2023-07-31T12:00:27;1.45;;;0.77;;
17494;SDS011;8864;51.970;4.614;2023-07-31T12:02:57;1.13;;;0.73;;
17494;SDS011;8864;51.970;4.614;2023-07-31T12:05:24;0.80;;;0.60;;
17494;SDS011;8864;51.970;4.614;2023-07-31T12:07:54;1.40;;;0.80;;
17494;SDS011;8864;51.970;4.614;2023-07-31T12:10:30;1.15;;;0.77;;
17494;SDS011;8864;51.970;4.614;2023-07-31T12:12:59;0.98;;;0.80;;
17494;SDS011;8864;51.970;4.614;2023-07-31T12:15:30;1.58;;;0.80;;
17494;SDS011;8864;51.970;4.614;2023-07-31T12:18:04;1.60;;;0.85;;
17494;SDS011;8864;51.970;4.614;2023-07-31T12:20:32;0.93;;;0.70;;
17494;SDS011;8864;51.970;4.614;2023-07-31T12:23:02;1.33;;;0.80;;
17494;SDS011;8864;51.970;4.614;2023-07-31T12:25:32;1.25;;;0.80;;
17494;SDS011;8864;51.970;4.614;2023-07-31T12:28:04;1.25;;;0.75;;
17494;SDS011;8864;51.970;4.614;2023-07-31T12:30:36;2.05;;;0.90;;
17494;SDS011;8864;51.970;4.614;2023-07-31T12:33:04;1.15;;;0.80;;
17494;SDS011;8864;51.970;4.614;2023-07-31T12:35:35;1.10;;;0.77;;
17494;SDS011;8864;51.970;4.614;2023-07-31T12:38:04;1.63;;;1.10;;
17494;SDS011;8864;51.970;4.614;2023-07-31T12:40:31;2.80;;;0.73;;
17494;SDS011;8864;51.970;4.614;2023-07-31T12:43:00;1.30;;;0.90;;
17494;SDS011;8864;51.970;4.614;2023-07-31T12:45:28;1.30;;;0.90;;
17494;SDS011;8864;51.970;4.614;2023-07-31T12:47:56;1.13;;;0.70;;
17494;SDS011;8864;51.970;4.614;2023-07-31T12:50:23;1.05;;;0.85;;
17494;SDS011;8864;51.970;4.614;2023-07-31T12:52:50;1.23;;;0.60;;
17494;SDS011;8864;51.970;4.614;2023-07-31T12:55:19;1.10;;;0.65;;
17494;SDS011;8864;51.970;4.614;2023-07-31T12:57:46;1.13;;;0.80;;
17494;SDS011;8864;51.970;4.614;2023-07-31T13:00:13;1.02;;;0.63;;
17494;SDS011;8864;51.970;4.614;2023-07-31T13:02:41;0.80;;;0.70;;
17494;SDS011;8864;51.970;4.614;2023-07-31T13:05:08;0.98;;;0.77;;
17494;SDS011;8864;51.970;4.614;2023-07-31T13:07:35;0.82;;;0.63;;
17494;SDS011;8864;51.970;4.614;2023-07-31T13:10:02;0.60;;;0.60;;
17494;SDS011;8864;51.970;4.614;2023-07-31T13:12:31;1.38;;;0.88;;
17494;SDS011;8864;51.970;4.614;2023-07-31T13:14:58;0.60;;;0.60;;
17494;SDS011;8864;51.970;4.614;2023-07-31T13:17:24;1.08;;;0.80;;
17494;SDS011;8864;51.970;4.614;2023-07-31T13:19:51;0.88;;;0.63;;
17494;SDS011;8864;51.970;4.614;2023-07-31T13:22:18;1.65;;;0.60;;
17494;SDS011;8864;51.970;4.614;2023-07-31T13:24:45;0.80;;;0.60;;
17494;SDS011;8864;51.970;4.614;2023-07-31T13:27:12;1.45;;;0.70;;
17494;SDS011;8864;51.970;4.614;2023-07-31T13:29:43;1.00;;;0.80;;
17494;SDS011;8864;51.970;4.614;2023-07-31T13:32:10;1.27;;;0.77;;
17494;SDS011;8864;51.970;4.614;2023-07-31T13:34:37;1.00;;;0.70;;
17494;SDS011;8864;51.970;4.614;2023-07-31T13:37:04;0.90;;;0.70;;
17494;SDS011;8864;51.970;4.614;2023-07-31T13:39:32;1.38;;;0.63;;
17494;SDS011;8864;51.970;4.614;2023-07-31T13:41:59;0.60;;;0.60;;
17494;SDS011;8864;51.970;4.614;2023-07-31T13:44:26;0.70;;;0.65;;
17494;SDS011;8864;51.970;4.614;2023-07-31T13:46:54;1.98;;;0.70;;
17494;SDS011;8864;51.970;4.614;2023-07-31T13:49:22;0.82;;;0.68;;
17494;SDS011;8864;51.970;4.614;2023-07-31T13:51:49;1.70;;;0.70;;
17494;SDS011;8864;51.970;4.614;2023-07-31T13:54:16;0.63;;;0.63;;
17494;SDS011;8864;51.970;4.614;2023-07-31T13:56:43;1.38;;;0.70;;
17494;SDS011;8864;51.970;4.614;2023-07-31T13:59:10;0.88;;;0.65;;
17494;SDS011;8864;51.970;4.614;2023-07-31T14:01:38;0.57;;;0.57;;
17494;SDS011;8864;51.970;4.614;2023-07-31T14:04:07;0.82;;;0.60;;
17494;SDS011;8864;51.970;4.614;2023-07-31T14:06:34;1.13;;;0.52;;
17494;SDS011;8864;51.970;4.614;2023-07-31T14:09:01;1.25;;;0.77;;
17494;SDS011;8864;51.970;4.614;2023-07-31T14:11:28;1.50;;;0.90;;
17494;SDS011;8864;51.970;4.614;2023-07-31T14:13:56;1.15;;;0.60;;
17494;SDS011;8864;51.970;4.614;2023-07-31T14:16:23;1.42;;;0.70;;
17494;SDS011;8864;51.970;4.614;2023-07-31T14:18:50;1.08;;;0.60;;
17494;SDS011;8864;51.970;4.614;2023-07-31T14:21:20;0.73;;;0.60;;
17494;SDS011;8864;51.970;4.614;2023-07-31T14:23:47;0.63;;;0.60;;
17494;SDS011;8864;51.970;4.614;2023-07-31T14:26:13;1.25;;;0.60;;
17494;SDS011;8864;51.970;4.614;2023-07-31T14:28:43;0.75;;;0.65;;
17494;SDS011;8864;51.970;4.614;2023-07-31T14:31:10;0.88;;;0.80;;
17494;SDS011;8864;51.970;4.614;2023-07-31T14:33:37;0.57;;;0.50;;
17494;SDS011;8864;51.970;4.614;2023-07-31T14:36:04;0.90;;;0.70;;
17494;SDS011;8864;51.970;4.614;2023-07-31T14:38:33;1.02;;;0.50;;
17494;SDS011;8864;51.970;4.614;2023-07-31T14:41:00;0.93;;;0.70;;
17494;SDS011;8864;51.970;4.614;2023-07-31T14:43:27;0.40;;;0.40;;
17494;SDS011;8864;51.970;4.614;2023-07-31T14:45:54;0.57;;;0.47;;
17494;SDS011;8864;51.970;4.614;2023-07-31T14:48:24;0.90;;;0.70;;
17494;SDS011;8864;51.970;4.614;2023-07-31T14:50:51;0.75;;;0.60;;
17494;SDS011;8864;51.970;4.614;2023-07-31T14:53:18;1.02;;;0.60;;
17494;SDS011;8864;51.970;4.614;2023-07-31T14:55:46;0.68;;;0.60;;
17494;SDS011;8864;51.970;4.614;2023-07-31T14:58:13;1.40;;;0.60;;
17494;SDS011;8864;51.970;4.614;2023-07-31T15:00:42;0.68;;;0.55;;
17494;SDS011;8864;51.970;4.614;2023-07-31T15:03:09;1.17;;;0.63;;
17494;SDS011;8864;51.970;4.614;2023-07-31T15:05:36;0.40;;;0.40;;